Time;durP1;ratioP1;P1;durP2;ratioP2;P2;SDS_P1;SDS_P2;PMS_P1;PMS_P2;Temp;Humidity;BMP_temperature;BMP_pressure;BME280_temperature;BME280_humidity;BME280_pressure;Samples;Min_cycle;Max_cycle;Signal;HPM_P1;HPM_P2
2022/01/09 00:00:37;;;;;;;0.90;0.90;;;4.00;99.90;;;;;;5064090;28;20226;-59
2022/01/09 00:03:05;;;;;;;0.73;0.73;;;4.00;99.90;;;;;;5057790;28;20243;-60
2022/01/09 00:05:32;;;;;;;1.00;0.90;;;3.90;1.00;;;;;;5076515;28;20202;-60
2022/01/09 00:08:00;;;;;;;1.03;1.00;;;3.90;1.00;;;;;;5054764;28;20282;-61
2022/01/09 00:10:28;;;;;;;0.70;0.70;;;3.90;1.00;;;;;;5085902;28;20198;-60
2022/01/09 00:12:56;;;;;;;1.33;1.23;;;3.90;1.00;;;;;;5064402;28;20232;-60
2022/01/09 00:15:23;;;;;;;0.80;0.80;;;3.80;1.00;;;;;;5068029;28;20194;-60
2022/01/09 00:17:50;;;;;;;2.43;0.90;;;3.80;1.00;;;;;;5081712;28;20225;-60
2022/01/09 00:20:17;;;;;;;0.60;0.60;;;3.80;1.00;;;;;;5082044;28;20194;-60
2022/01/09 00:22:50;;;;;;;0.60;0.60;;;3.80;1.00;;;;;;5077554;28;20202;-60
2022/01/09 00:25:21;;;;;;;0.90;0.90;;;3.80;1.00;;;;;;5076569;28;20205;-60
2022/01/09 00:27:49;;;;;;;0.70;0.70;;;3.70;99.90;;;;;;5075132;28;20203;-60
2022/01/09 00:30:18;;;;;;;0.60;0.60;;;3.70;99.90;;;;;;5045415;28;20229;-60
2022/01/09 00:32:45;;;;;;;1.07;0.97;;;3.60;99.90;;;;;;5079443;28;20241;-60
2022/01/09 00:35:14;;;;;;;0.40;0.40;;;3.50;1.00;;;;;;5066041;28;20183;-60
2022/01/09 00:37:42;;;;;;;0.40;0.40;;;3.50;99.90;;;;;;5065108;28;20230;-61
2022/01/09 00:40:11;;;;;;;0.40;0.40;;;3.50;1.00;;;;;;5081871;28;20222;-60
2022/01/09 00:42:39;;;;;;;0.40;0.40;;;3.50;1.00;;;;;;5081306;28;20634;-60
2022/01/09 00:45:07;;;;;;;0.40;0.40;;;3.50;1.00;;;;;;5063099;28;21492;-60
2022/01/09 00:47:34;;;;;;;0.40;0.40;;;3.40;99.90;;;;;;5066765;28;20228;-60
2022/01/09 00:50:03;;;;;;;0.40;0.40;;;3.40;1.00;;;;;;5070459;28;20259;-60
2022/01/09 00:52:30;;;;;;;0.40;0.40;;;3.40;1.00;;;;;;5066892;28;20219;-60
2022/01/09 00:54:57;;;;;;;0.40;0.40;;;3.40;1.00;;;;;;5080655;28;20239;-60
2022/01/09 00:57:24;;;;;;;0.40;0.40;;;3.40;99.90;;;;;;5078585;28;20194;-60
2022/01/09 00:59:51;;;;;;;0.40;0.40;;;3.40;99.90;;;;;;5074575;28;20204;-59
2022/01/09 01:02:18;;;;;;;0.30;0.30;;;3.50;1.00;;;;;;5080368;28;20248;-60
2022/01/09 01:04:47;;;;;;;0.43;0.43;;;3.40;99.90;;;;;;5079669;28;20225;-59
2022/01/09 01:07:14;;;;;;;0.40;0.40;;;3.40;1.00;;;;;;5082658;28;20691;-60
2022/01/09 01:09:41;;;;;;;0.40;0.40;;;3.40;99.90;;;;;;5067919;28;20225;-60
2022/01/09 01:12:08;;;;;;;0.40;0.40;;;3.50;99.90;;;;;;5078172;28;20303;-60
2022/01/09 01:14:35;;;;;;;0.40;0.40;;;3.50;99.90;;;;;;5079574;28;20779;-59
2022/01/09 01:17:03;;;;;;;0.40;0.40;;;3.50;1.00;;;;;;5079328;28;20949;-60
2022/01/09 01:19:30;;;;;;;0.40;0.40;;;3.50;1.00;;;;;;5072265;28;20194;-60
2022/01/09 01:22:17;;;;;;;0.40;0.40;;;3.50;1.00;;;;;;5057500;28;20312;-60
2022/01/09 01:24:45;;;;;;;0.40;0.40;;;3.60;99.90;;;;;;5078948;28;20198;-60
2022/01/09 01:27:13;;;;;;;0.30;0.30;;;3.50;99.90;;;;;;5078820;28;20657;-60
2022/01/09 01:29:40;;;;;;;0.40;0.40;;;3.60;99.90;;;;;;5079530;28;20192;-60
2022/01/09 01:32:08;;;;;;;0.40;0.40;;;3.70;1.00;;;;;;5063115;28;20708;-60
2022/01/09 01:34:35;;;;;;;0.40;0.40;;;3.70;99.90;;;;;;5074604;28;20234;-60
2022/01/09 01:37:02;;;;;;;0.33;0.33;;;3.70;99.90;;;;;;5066451;28;20510;-60
2022/01/09 01:39:30;;;;;;;0.40;0.40;;;3.70;69.70;;;;;;5066168;28;20217;-60
2022/01/09 01:41:57;;;;;;;0.40;0.40;;;3.80;1.00;;;;;;5074671;28;20199;-60
2022/01/09 01:44:24;;;;;;;0.40;0.40;;;3.80;1.00;;;;;;5077960;28;20316;-60
2022/01/09 01:46:52;;;;;;;0.40;0.40;;;3.80;1.00;;;;;;5061977;28;20229;-59
2022/01/09 01:49:19;;;;;;;0.40;0.40;;;3.80;99.90;;;;;;5077771;28;20247;-59
2022/01/09 01:51:46;;;;;;;0.40;0.40;;;3.90;56.10;;;;;;5076572;28;20256;-59
2022/01/09 01:54:14;;;;;;;0.40;0.40;;;3.90;1.00;;;;;;5053406;28;20207;-59
2022/01/09 01:56:41;;;;;;;0.40;0.40;;;3.90;1.00;;;;;;5052617;28;20208;-60
2022/01/09 01:59:08;;;;;;;0.40;0.40;;;3.90;1.00;;;;;;5078036;28;20267;-59
2022/01/09 02:01:36;;;;;;;0.40;0.40;;;3.90;1.00;;;;;;5074875;28;20563;-59
2022/01/09 02:04:04;;;;;;;0.40;0.40;;;3.90;1.00;;;;;;5079404;28;20269;-60
2022/01/09 02:06:34;;;;;;;0.40;0.40;;;3.90;1.00;;;;;;5076391;28;20234;-60
2022/01/09 02:09:04;;;;;;;0.40;0.40;;;3.90;1.00;;;;;;5059142;28;20206;-60
2022/01/09 02:11:33;;;;;;;0.40;0.40;;;3.90;1.00;;;;;;5072712;28;20290;-60
2022/01/09 02:14:00;;;;;;;0.30;0.30;;;4.00;1.00;;;;;;5078499;28;20726;-60
2022/01/09 02:16:28;;;;;;;0.40;0.40;;;4.00;1.00;;;;;;5056063;28;20242;-59
2022/01/09 02:18:58;;;;;;;0.40;0.40;;;4.00;1.00;;;;;;5076509;28;20191;-60
2022/01/09 02:21:26;;;;;;;0.40;0.40;;;4.00;1.00;;;;;;5083388;28;20791;-60
2022/01/09 02:23:53;;;;;;;0.40;0.40;;;4.00;1.00;;;;;;5085479;28;20190;-60
2022/01/09 02:26:24;;;;;;;0.40;0.40;;;4.00;1.00;;;;;;5075302;28;20194;-60
2022/01/09 02:28:51;;;;;;;0.40;0.40;;;4.00;1.00;;;;;;5053862;28;20666;-60
2022/01/09 02:31:19;;;;;;;0.40;0.40;;;4.00;99.90;;;;;;5058945;28;20295;-60
2022/01/09 02:33:46;;;;;;;0.40;0.40;;;4.00;1.00;;;;;;5079241;28;20222;-58
2022/01/09 02:36:13;;;;;;;0.40;0.40;;;4.00;1.00;;;;;;5073869;28;20193;-60
2022/01/09 02:38:40;;;;;;;0.40;0.40;;;4.00;1.00;;;;;;5059643;28;20202;-59
2022/01/09 02:41:07;;;;;;;0.40;0.40;;;4.00;99.90;;;;;;5076379;28;20202;-60
2022/01/09 02:43:34;;;;;;;0.40;0.40;;;4.10;99.90;;;;;;5055362;28;20303;-59
2022/01/09 02:48:35;;;;;;;0.40;0.40;;;4.00;1.00;;;;;;5080388;28;20253;-59
2022/01/09 02:51:13;;;;;;;0.40;0.40;;;4.00;1.00;;;;;;5058032;28;20273;-59
2022/01/09 02:53:44;;;;;;;0.43;0.43;;;4.00;1.00;;;;;;5076238;28;20198;-60
2022/01/09 02:56:11;;;;;;;0.40;0.40;;;4.00;1.00;;;;;;5074909;28;20691;-60
2022/01/09 02:58:39;;;;;;;0.40;0.40;;;3.90;1.00;;;;;;5059742;28;20198;-57
2022/01/09 03:01:09;;;;;;;0.40;0.40;;;3.90;1.00;;;;;;5060860;28;20190;-59
2022/01/09 03:03:37;;;;;;;0.40;0.40;;;4.00;99.90;;;;;;5059088;28;20210;-59
2022/01/09 03:06:04;;;;;;;0.40;0.40;;;4.00;99.90;;;;;;5078364;28;20613;-59
2022/01/09 03:08:31;;;;;;;0.40;0.40;;;4.00;99.90;;;;;;5078981;28;22686;-59
2022/01/09 03:10:58;;;;;;;0.40;0.40;;;4.00;99.90;;;;;;5062925;28;20592;-59
2022/01/09 03:13:25;;;;;;;0.40;0.40;;;4.00;99.90;;;;;;5075319;28;20309;-59
2022/01/09 03:15:52;;;;;;;0.40;0.40;;;4.00;99.90;;;;;;5063008;28;20194;-59
2022/01/09 03:18:19;;;;;;;0.30;0.30;;;4.00;99.90;;;;;;5081700;28;20338;-59
2022/01/09 03:20:46;;;;;;;0.40;0.40;;;3.90;99.90;;;;;;5068338;28;20222;-60
2022/01/09 03:23:13;;;;;;;0.50;0.50;;;4.00;99.90;;;;;;5087072;28;20311;-59
2022/01/09 03:25:40;;;;;;;0.40;0.40;;;4.00;99.90;;;;;;5089404;28;20202;-59
2022/01/09 03:28:07;;;;;;;0.40;0.40;;;4.00;99.90;;;;;;5088009;28;20202;-60
2022/01/09 03:30:34;;;;;;;0.40;0.40;;;3.90;99.90;;;;;;5064493;28;20198;-59
2022/01/09 03:33:01;;;;;;;0.40;0.40;;;3.90;99.90;;;;;;5066098;28;20275;-59
2022/01/09 03:35:29;;;;;;;0.40;0.40;;;3.90;99.90;;;;;;5085088;28;20658;-60
2022/01/09 03:37:56;;;;;;;0.40;0.40;;;3.90;99.90;;;;;;5085865;28;20662;-59
2022/01/09 03:40:26;;;;;;;0.40;0.40;;;3.80;66.50;;;;;;5086372;28;20749;-59
2022/01/09 03:42:53;;;;;;;0.40;0.40;;;3.80;99.90;;;;;;5063095;28;20195;-60
2022/01/09 03:45:22;;;;;;;0.40;0.40;;;3.70;99.90;;;;;;5079645;28;20641;-60
2022/01/09 03:47:50;;;;;;;0.40;0.40;;;3.70;99.90;;;;;;5084872;28;20222;-60
2022/01/09 03:50:17;;;;;;;0.40;0.40;;;3.70;99.90;;;;;;5066779;28;20217;-59
2022/01/09 03:52:47;;;;;;;0.40;0.40;;;3.60;1.00;;;;;;5083549;28;20206;-60
2022/01/09 03:55:17;;;;;;;0.40;0.40;;;3.50;1.00;;;;;;5086981;28;20263;-60
2022/01/09 03:57:45;;;;;;;0.40;0.40;;;3.60;1.00;;;;;;5087500;28;20214;-60
2022/01/09 04:00:18;;;;;;;0.40;0.40;;;3.60;1.00;;;;;;5064262;28;20247;-59
2022/01/09 04:02:48;;;;;;;0.40;0.40;;;3.60;1.00;;;;;;5080552;28;20198;-59
2022/01/09 04:05:16;;;;;;;0.40;0.40;;;3.50;1.00;;;;;;5087972;28;20193;-60
2022/01/09 04:07:43;;;;;;;0.40;0.40;;;3.60;4.20;;;;;;5069008;28;20210;-60
2022/01/09 04:10:28;;;;;;;0.40;0.40;;;3.60;99.90;;;;;;5065757;28;20729;-61
2022/01/09 04:12:59;;;;;;;0.40;0.40;;;3.50;99.90;;;;;;5062870;28;20623;-60
2022/01/09 04:15:27;;;;;;;0.40;0.40;;;3.60;99.90;;;;;;5080167;28;20197;-60
2022/01/09 04:17:55;;;;;;;0.40;0.40;;;3.60;99.90;;;;;;5079978;28;20725;-60
2022/01/09 04:20:32;;;;;;;0.40;0.40;;;3.60;1.00;;;;;;5062577;28;20264;-60
2022/01/09 04:23:00;;;;;;;0.40;0.40;;;3.70;1.00;;;;;;5085341;28;20230;-60
2022/01/09 04:25:27;;;;;;;0.40;0.40;;;3.70;1.00;;;;;;5084417;28;20194;-60
2022/01/09 04:27:54;;;;;;;0.40;0.40;;;3.70;99.90;;;;;;5078150;28;20218;-59
2022/01/09 04:30:22;;;;;;;0.40;0.40;;;3.70;99.90;;;;;;5082411;28;20194;-60
2022/01/09 04:32:49;;;;;;;0.40;0.40;;;3.70;1.00;;;;;;5070501;28;20257;-59
2022/01/09 04:35:16;;;;;;;0.40;0.40;;;3.80;1.00;;;;;;5086686;28;20186;-59
2022/01/09 04:37:43;;;;;;;0.40;0.40;;;3.80;1.00;;;;;;5082313;28;20190;-58
2022/01/09 04:40:12;;;;;;;0.40;0.40;;;3.90;99.90;;;;;;5085066;28;20254;-58
2022/01/09 04:42:44;;;;;;;0.40;0.40;;;3.90;99.90;;;;;;5085801;28;20963;-57
2022/01/09 04:45:14;;;;;;;0.40;0.40;;;3.90;1.00;;;;;;5049182;28;20584;-60
2022/01/09 04:47:45;;;;;;;0.40;0.40;;;4.00;1.00;;;;;;5081179;28;20198;-60
2022/01/09 04:50:17;;;;;;;0.40;0.40;;;4.10;1.00;;;;;;5064524;28;20731;-59
2022/01/09 04:52:45;;;;;;;0.40;0.40;;;4.10;1.00;;;;;;5083274;28;20568;-60
2022/01/09 04:55:12;;;;;;;0.40;0.40;;;4.20;1.00;;;;;;5079297;28;20277;-60
2022/01/09 04:57:39;;;;;;;0.40;0.40;;;4.20;1.00;;;;;;5064890;28;20221;-60
2022/01/09 05:00:07;;;;;;;0.40;0.40;;;4.20;1.00;;;;;;5081808;28;20240;-60
2022/01/09 05:02:34;;;;;;;0.40;0.40;;;4.20;99.90;;;;;;5082929;28;20208;-60
2022/01/09 05:05:04;;;;;;;0.40;0.40;;;4.30;99.90;;;;;;5081585;28;20194;-60
2022/01/09 05:07:31;;;;;;;0.40;0.40;;;4.30;1.00;;;;;;5082577;28;20285;-59
2022/01/09 05:09:58;;;;;;;0.40;0.40;;;4.30;1.00;;;;;;5082306;28;20202;-59
2022/01/09 05:12:25;;;;;;;0.40;0.40;;;4.30;1.00;;;;;;5075821;28;20226;-59
2022/01/09 05:14:52;;;;;;;0.40;0.40;;;4.30;1.00;;;;;;5068163;28;20335;-56
2022/01/09 05:17:19;;;;;;;0.40;0.40;;;4.30;99.90;;;;;;5067351;28;20321;-59
2022/01/09 05:19:47;;;;;;;0.40;0.40;;;4.40;99.90;;;;;;5070655;28;20191;-57
2022/01/09 05:22:14;;;;;;;0.40;0.40;;;4.30;99.90;;;;;;5075227;28;20341;-60
2022/01/09 05:24:41;;;;;;;0.40;0.40;;;4.40;99.90;;;;;;5085329;28;20243;-57
2022/01/09 05:27:09;;;;;;;0.57;0.57;;;4.40;99.90;;;;;;5081850;28;20218;-57
2022/01/09 05:29:36;;;;;;;0.40;0.40;;;4.40;99.90;;;;;;5085401;28;20597;-58
2022/01/09 05:32:03;;;;;;;0.40;0.40;;;4.40;99.90;;;;;;5085325;28;20239;-58
2022/01/09 05:34:30;;;;;;;0.40;0.40;;;4.40;99.90;;;;;;5084253;28;20229;-58
2022/01/09 05:36:57;;;;;;;0.40;0.40;;;4.40;99.90;;;;;;5082673;28;20210;-59
2022/01/09 05:39:24;;;;;;;0.40;0.40;;;4.50;99.90;;;;;;5064898;28;20575;-57
2022/01/09 05:41:51;;;;;;;0.40;0.40;;;4.50;99.90;;;;;;5084050;28;20260;-58
2022/01/09 05:44:19;;;;;;;0.40;0.40;;;4.50;99.90;;;;;;5067579;28;20494;-57
2022/01/09 05:46:46;;;;;;;0.40;0.40;;;4.50;99.90;;;;;;5066947;28;20190;-58
2022/01/09 05:49:13;;;;;;;0.40;0.40;;;4.60;99.90;;;;;;5072648;28;20206;-57
2022/01/09 05:51:40;;;;;;;0.30;0.30;;;4.60;99.90;;;;;;5080073;28;20192;-60
2022/01/09 05:54:08;;;;;;;0.40;0.40;;;4.60;99.90;;;;;;5082420;28;20213;-60
2022/01/09 05:56:35;;;;;;;0.40;0.40;;;4.70;99.90;;;;;;5089424;28;20199;-58
2022/01/09 05:59:02;;;;;;;0.40;0.40;;;4.70;99.90;;;;;;5083482;28;20194;-58
2022/01/09 06:01:29;;;;;;;0.40;0.40;;;4.70;99.90;;;;;;5081018;28;20205;-60
2022/01/09 06:03:56;;;;;;;0.40;0.40;;;4.80;99.90;;;;;;5056248;28;20237;-59
2022/01/09 06:06:23;;;;;;;0.40;0.40;;;4.80;99.90;;;;;;5065959;28;20249;-60
2022/01/09 06:08:50;;;;;;;0.40;0.40;;;4.90;99.90;;;;;;5063955;28;20623;-60
2022/01/09 06:11:17;;;;;;;0.30;0.30;;;4.90;1.00;;;;;;5063894;28;20190;-57
2022/01/09 06:13:44;;;;;;;0.40;0.40;;;4.90;1.00;;;;;;5066319;28;20210;-58
2022/01/09 06:16:11;;;;;;;0.40;0.40;;;4.90;1.00;;;;;;5054288;28;20199;-59
2022/01/09 06:18:38;;;;;;;0.30;0.30;;;4.90;1.00;;;;;;5075077;28;20214;-59
2022/01/09 06:21:05;;;;;;;0.40;0.40;;;5.00;1.00;;;;;;5066377;28;20237;-58
2022/01/09 06:23:32;;;;;;;0.40;0.40;;;5.10;1.00;;;;;;5078329;28;20253;-58
2022/01/09 06:25:59;;;;;;;0.30;0.30;;;5.00;1.00;;;;;;5059928;28;20221;-57
2022/01/09 06:28:26;;;;;;;0.40;0.40;;;5.00;1.00;;;;;;5074772;28;20209;-58
2022/01/09 06:30:53;;;;;;;0.40;0.40;;;5.10;1.00;;;;;;5045731;28;20198;-57
2022/01/09 06:33:20;;;;;;;0.40;0.40;;;5.10;1.00;;;;;;5079618;28;20632;-58
2022/01/09 06:35:47;;;;;;;0.40;0.40;;;5.10;1.00;;;;;;5066960;28;20299;-58
2022/01/09 06:38:14;;;;;;;0.37;0.37;;;5.20;1.00;;;;;;5056692;28;20689;-60
2022/01/09 06:40:41;;;;;;;0.30;0.30;;;5.20;99.90;;;;;;5082262;28;20585;-60
2022/01/09 06:43:08;;;;;;;0.37;0.37;;;5.20;79.60;;;;;;5076411;28;20252;-59
2022/01/09 06:45:35;;;;;;;0.33;0.33;;;5.20;1.00;;;;;;5075484;28;20532;-59
2022/01/09 06:48:02;;;;;;;0.40;0.40;;;5.20;99.90;;;;;;5056952;28;20225;-60
2022/01/09 06:50:29;;;;;;;0.30;0.30;;;5.20;99.80;;;;;;5062096;28;20243;-59
2022/01/09 06:52:56;;;;;;;0.40;0.40;;;5.30;1.00;;;;;;5083161;28;20259;-60
2022/01/09 06:55:24;;;;;;;0.40;0.40;;;5.20;1.00;;;;;;5079759;28;20879;-59
2022/01/09 06:57:51;;;;;;;0.40;0.40;;;5.20;99.90;;;;;;5076370;28;20263;-60
2022/01/09 07:00:17;;;;;;;0.30;0.30;;;5.20;99.90;;;;;;5083136;28;20750;-60
2022/01/09 07:02:45;;;;;;;0.40;0.40;;;5.20;99.90;;;;;;5064365;28;20649;-59
2022/01/09 07:05:13;;;;;;;0.30;0.30;;;5.20;89.80;;;;;;5060192;28;20243;-60
2022/01/09 07:07:40;;;;;;;0.40;0.40;;;5.20;54.10;;;;;;5080587;28;20301;-59
2022/01/09 07:10:08;;;;;;;0.40;0.40;;;5.10;23.80;;;;;;5083930;28;20244;-60
2022/01/09 07:12:36;;;;;;;0.40;0.40;;;5.20;1.00;;;;;;5080285;28;20544;-57
2022/01/09 07:15:04;;;;;;;0.40;0.40;;;5.10;1.00;;;;;;5085723;28;20194;-58
2022/01/09 07:17:31;;;;;;;0.30;0.30;;;5.10;76.10;;;;;;5044032;28;20190;-58
2022/01/09 07:19:59;;;;;;;0.40;0.40;;;5.10;96.30;;;;;;5085538;28;20194;-58
2022/01/09 07:22:27;;;;;;;0.40;0.40;;;5.20;99.90;;;;;;5058350;28;20233;-58
2022/01/09 07:24:55;;;;;;;0.40;0.40;;;5.20;75.60;;;;;;5061253;28;20294;-60
2022/01/09 07:27:21;;;;;;;0.40;0.40;;;5.20;96.70;;;;;;5088222;28;20206;-57
2022/01/09 07:29:49;;;;;;;0.40;0.40;;;5.20;99.90;;;;;;5083893;28;20210;-59
2022/01/09 07:32:16;;;;;;;0.40;0.40;;;5.20;99.80;;;;;;5069877;28;20202;-60
2022/01/09 07:34:43;;;;;;;0.40;0.40;;;5.20;1.00;;;;;;5085171;28;20234;-57
2022/01/09 07:37:11;;;;;;;0.40;0.40;;;5.20;4.90;;;;;;5066936;28;20597;-59
2022/01/09 07:39:38;;;;;;;0.40;0.40;;;5.10;67.70;;;;;;5083993;28;20206;-58
2022/01/09 07:42:05;;;;;;;0.40;0.40;;;5.10;99.90;;;;;;5080642;28;20218;-58
2022/01/09 07:44:32;;;;;;;0.30;0.30;;;5.10;99.90;;;;;;5075305;28;20234;-58
2022/01/09 07:46:59;;;;;;;0.40;0.40;;;5.10;99.90;;;;;;5060422;28;23071;-58
2022/01/09 07:49:26;;;;;;;0.40;0.40;;;5.10;99.90;;;;;;5083396;28;20327;-57
2022/01/09 07:51:56;;;;;;;0.40;0.40;;;5.10;99.90;;;;;;5075922;28;20665;-58
2022/01/09 07:54:22;;;;;;;0.40;0.40;;;5.10;99.90;;;;;;5081852;28;20214;-58
2022/01/09 07:56:49;;;;;;;0.40;0.40;;;5.00;99.90;;;;;;5088101;28;20251;-59
2022/01/09 07:59:16;;;;;;;0.40;0.40;;;5.10;99.90;;;;;;5086662;28;20190;-59
2022/01/09 08:01:48;;;;;;;0.40;0.40;;;5.10;99.90;;;;;;5068038;28;20190;-57
2022/01/09 08:04:15;;;;;;;0.40;0.40;;;5.10;99.70;;;;;;5085214;28;20222;-58
2022/01/09 08:06:42;;;;;;;0.37;0.37;;;5.20;69.00;;;;;;5086781;28;20198;-59
2022/01/09 08:09:09;;;;;;;0.40;0.40;;;5.20;72.00;;;;;;5070888;28;20237;-58
2022/01/09 08:11:36;;;;;;;0.40;0.40;;;5.20;96.10;;;;;;5069519;28;20231;-58
2022/01/09 08:14:03;;;;;;;0.40;0.40;;;5.10;99.90;;;;;;5070232;28;20251;-59
2022/01/09 08:16:30;;;;;;;0.40;0.40;;;5.10;99.90;;;;;;5069457;28;20289;-59
2022/01/09 08:18:57;;;;;;;0.40;0.40;;;5.20;35.50;;;;;;5083239;28;20247;-60
2022/01/09 08:21:25;;;;;;;0.40;0.40;;;5.10;42.90;;;;;;5084469;28;20207;-59
2022/01/09 08:23:52;;;;;;;0.40;0.40;;;5.10;30.60;;;;;;5052490;28;20733;-59
2022/01/09 08:26:19;;;;;;;0.40;0.40;;;5.10;1.00;;;;;;5071780;28;20255;-59
2022/01/09 08:28:48;;;;;;;0.40;0.40;;;5.10;1.00;;;;;;5087646;28;20194;-57
2022/01/09 08:31:18;;;;;;;0.37;0.37;;;5.10;1.00;;;;;;5085751;28;20217;-57
2022/01/09 08:33:46;;;;;;;0.40;0.40;;;5.20;1.00;;;;;;5060003;28;20230;-58
2022/01/09 08:36:14;;;;;;;0.40;0.40;;;5.20;1.00;;;;;;5067524;28;20879;-58
2022/01/09 08:38:42;;;;;;;0.40;0.40;;;5.20;1.00;;;;;;5045953;28;20206;-58
2022/01/09 08:41:10;;;;;;;0.40;0.40;;;5.20;1.00;;;;;;5084413;28;20191;-60
2022/01/09 08:43:37;;;;;;;0.40;0.40;;;5.20;99.90;;;;;;5066768;28;20923;-60
2022/01/09 08:46:05;;;;;;;0.40;0.40;;;5.30;99.90;;;;;;5070355;28;20226;-59
2022/01/09 08:48:32;;;;;;;0.40;0.40;;;5.30;76.70;;;;;;5067435;28;20206;-59
2022/01/09 08:50:59;;;;;;;0.30;0.30;;;5.30;94.20;;;;;;5086806;28;20194;-59
2022/01/09 08:53:27;;;;;;;0.40;0.40;;;5.30;99.90;;;;;;5086110;28;20243;-59
2022/01/09 08:55:53;;;;;;;0.40;0.40;;;5.30;1.00;;;;;;5084118;28;20197;-60
2022/01/09 08:58:20;;;;;;;0.40;0.40;;;5.30;1.00;;;;;;5080853;28;20309;-60
2022/01/09 09:00:47;;;;;;;0.30;0.30;;;5.30;1.00;;;;;;5086597;28;20186;-59
2022/01/09 09:03:14;;;;;;;0.40;0.40;;;5.30;1.00;;;;;;5085715;28;20191;-58
2022/01/09 09:05:42;;;;;;;0.30;0.30;;;5.30;1.00;;;;;;5086206;28;20255;-57
2022/01/09 09:08:10;;;;;;;0.40;0.40;;;5.30;1.00;;;;;;5082271;28;20187;-57
2022/01/09 09:10:37;;;;;;;0.40;0.40;;;5.30;1.00;;;;;;5081955;28;20202;-58
2022/01/09 09:13:04;;;;;;;1.90;1.73;;;5.30;1.00;;;;;;5086872;28;20284;-58
2022/01/09 09:15:30;;;;;;;0.40;0.40;;;5.30;1.00;;;;;;5085919;28;20198;-58
2022/01/09 09:17:57;;;;;;;0.30;0.30;;;5.30;1.00;;;;;;5084404;28;20194;-57
2022/01/09 09:20:25;;;;;;;0.40;0.40;;;5.30;1.00;;;;;;5084077;28;20199;-58
2022/01/09 09:22:52;;;;;;;0.40;0.40;;;5.30;1.00;;;;;;5086381;28;20244;-58
2022/01/09 09:25:19;;;;;;;1.90;1.90;;;5.30;1.00;;;;;;5082935;28;20206;-57
2022/01/09 09:27:46;;;;;;;0.30;0.30;;;5.30;1.00;;;;;;5083347;28;20198;-58
2022/01/09 09:30:14;;;;;;;0.40;0.40;;;5.50;1.00;;;;;;5068870;28;20659;-57
2022/01/09 09:32:42;;;;;;;0.40;0.40;;;5.60;1.00;;;;;;5083407;28;20200;-57
2022/01/09 09:35:11;;;;;;;0.40;0.40;;;5.60;1.00;;;;;;5067178;28;20214;-58
2022/01/09 09:37:39;;;;;;;0.30;0.30;;;5.70;1.00;;;;;;5067106;28;20202;-58
2022/01/09 09:40:07;;;;;;;0.40;0.40;;;5.70;99.90;;;;;;5086898;28;20182;-57
2022/01/09 09:42:34;;;;;;;0.40;0.40;;;5.70;1.00;;;;;;5078407;28;20264;-57
2022/01/09 09:45:05;;;;;;;0.40;0.40;;;5.80;1.00;;;;;;5087989;28;20190;-57
2022/01/09 09:47:33;;;;;;;0.40;0.40;;;5.80;1.00;;;;;;5077857;28;20182;-57
2022/01/09 09:50:01;;;;;;;0.40;0.40;;;5.80;1.00;;;;;;5082518;28;20208;-58
2022/01/09 09:52:28;;;;;;;0.40;0.40;;;5.80;99.90;;;;;;5058025;28;20225;-58
2022/01/09 09:55:04;;;;;;;0.40;0.40;;;5.80;99.90;;;;;;5081737;28;20605;-59
2022/01/09 09:57:31;;;;;;;0.40;0.40;;;5.90;99.90;;;;;;5084005;28;20240;-58
2022/01/09 10:00:09;;;;;;;0.40;0.40;;;6.00;99.90;;;;;;5082070;28;20197;-58
2022/01/09 10:02:47;;;;;;;0.40;0.40;;;6.00;99.90;;;;;;5079650;28;20202;-59
2022/01/09 10:05:20;;;;;;;0.40;0.40;;;6.00;99.90;;;;;;5062852;28;20217;-59
2022/01/09 10:07:52;;;;;;;0.40;0.40;;;6.00;99.90;;;;;;5061462;28;20217;-59
2022/01/09 10:10:28;;;;;;;0.40;0.40;;;6.00;94.10;;;;;;5060733;28;20244;-60
2022/01/09 10:13:09;;;;;;;0.40;0.40;;;6.00;99.90;;;;;;5079606;28;20197;-59
2022/01/09 10:16:03;;;;;;;0.40;0.40;;;6.10;99.90;;;;;;5057335;28;20218;-59
2022/01/09 10:18:37;;;;;;;0.40;0.40;;;6.10;99.90;;;;;;5056612;28;20270;-60
2022/01/09 10:21:08;;;;;;;0.40;0.40;;;6.10;48.20;;;;;;5080534;28;20216;-57
2022/01/09 10:23:56;;;;;;;0.40;0.40;;;6.20;99.90;;;;;;5049746;28;20214;-57
2022/01/09 10:26:23;;;;;;;0.40;0.40;;;6.30;99.90;;;;;;5073439;28;20617;-57
2022/01/09 10:28:50;;;;;;;0.40;0.40;;;6.20;64.80;;;;;;5070886;28;20665;-57
2022/01/09 10:31:19;;;;;;;0.40;0.40;;;6.20;99.90;;;;;;5068232;28;20201;-58
2022/01/09 10:33:56;;;;;;;0.40;0.40;;;6.30;97.70;;;;;;5074503;28;20349;-57
2022/01/09 10:36:40;;;;;;;0.40;0.40;;;6.20;1.00;;;;;;5073308;28;20178;-57
2022/01/09 10:39:13;;;;;;;0.40;0.40;;;6.20;59.40;;;;;;5075950;28;20221;-59
2022/01/09 10:42:03;;;;;;;0.40;0.40;;;6.20;1.00;;;;;;5073701;28;20198;-57
2022/01/09 10:44:34;;;;;;;0.30;0.30;;;6.30;99.90;;;;;;5054644;28;20725;-58
2022/01/09 10:47:05;;;;;;;0.40;0.40;;;6.40;1.00;;;;;;5074125;28;20232;-57
2022/01/09 10:49:38;;;;;;;0.40;0.40;;;6.40;1.00;;;;;;5051339;28;20201;-57
2022/01/09 10:52:17;;;;;;;0.40;0.40;;;6.30;50.80;;;;;;5056940;28;20204;-58
2022/01/09 10:54:46;;;;;;;0.40;0.40;;;6.20;62.80;;;;;;5073399;28;20284;-57
2022/01/09 10:57:14;;;;;;;0.40;0.40;;;6.10;99.90;;;;;;5073578;28;20198;-57
2022/01/09 10:59:42;;;;;;;0.40;0.40;;;6.20;99.90;;;;;;5072988;28;20186;-57
2022/01/09 11:02:12;;;;;;;0.40;0.40;;;6.20;99.90;;;;;;5072831;28;20203;-57
2022/01/09 11:04:42;;;;;;;0.40;0.40;;;6.20;99.90;;;;;;5074906;28;20203;-57
2022/01/09 11:07:10;;;;;;;0.40;0.40;;;6.20;99.90;;;;;;5080823;28;20198;-57
2022/01/09 11:09:41;;;;;;;0.40;0.40;;;6.10;1.00;;;;;;5079527;28;20205;-58
2022/01/09 11:12:09;;;;;;;0.40;0.40;;;6.10;1.00;;;;;;5079663;28;20198;-56
2022/01/09 11:14:41;;;;;;;0.40;0.40;;;6.10;84.60;;;;;;5061892;28;20229;-57
2022/01/09 11:17:09;;;;;;;0.40;0.40;;;6.00;99.90;;;;;;5078361;28;21116;-58
2022/01/09 11:19:37;;;;;;;0.40;0.40;;;6.00;99.90;;;;;;5076018;28;22528;-57
2022/01/09 11:22:07;;;;;;;0.40;0.40;;;5.90;99.90;;;;;;5073888;28;20215;-57
2022/01/09 11:24:34;;;;;;;0.40;0.40;;;5.90;99.90;;;;;;5081929;28;20222;-57
2022/01/09 11:27:23;;;;;;;0.40;0.40;;;5.80;99.90;;;;;;5063504;28;20198;-57
2022/01/09 11:30:05;;;;;;;0.37;0.37;;;5.90;99.90;;;;;;5078224;28;20539;-57
2022/01/09 11:32:59;;;;;;;0.40;0.40;;;5.80;99.90;;;;;;5082784;28;20243;-56
2022/01/09 11:35:35;;;;;;;0.40;0.40;;;5.90;99.90;;;;;;5083703;28;20202;-57
2022/01/09 11:38:47;;;;;;;0.40;0.40;;;5.90;99.90;;;;;;5081707;28;20185;-57
2022/01/09 11:41:18;;;;;;;0.40;0.40;;;5.90;99.90;;;;;;5059209;28;20299;-56
2022/01/09 11:44:12;;;;;;;0.30;0.30;;;5.80;99.90;;;;;;5059470;28;20218;-57
2022/01/09 11:47:03;;;;;;;0.40;0.40;;;5.80;1.00;;;;;;5082925;28;20210;-58
2022/01/09 11:49:57;;;;;;;0.33;0.33;;;5.80;1.00;;;;;;5084635;28;20199;-58
2022/01/09 11:52:26;;;;;;;0.40;0.40;;;5.80;1.00;;;;;;5086088;28;20211;-57
2022/01/09 11:54:59;;;;;;;0.40;0.40;;;5.80;1.00;;;;;;5085339;28;20261;-57
2022/01/09 11:57:47;;;;;;;0.40;0.40;;;5.70;1.00;;;;;;5086346;28;20255;-57
2022/01/09 12:00:42;;;;;;;0.40;0.40;;;5.60;1.00;;;;;;5086480;28;20183;-57
2022/01/09 12:03:27;;;;;;;0.40;0.40;;;5.60;1.00;;;;;;5065711;28;21661;-57
2022/01/09 12:06:10;;;;;;;0.40;0.40;;;5.60;1.00;;;;;;5072434;28;20210;-59
2022/01/09 12:09:04;;;;;;;0.40;0.40;;;5.70;1.00;;;;;;5081693;28;20276;-58
2022/01/09 12:12:02;;;;;;;0.40;0.40;;;5.80;1.00;;;;;;5073921;28;20222;-58
2022/01/09 12:15:03;;;;;;;0.40;0.40;;;5.80;1.00;;;;;;5083009;28;20242;-58
2022/01/09 12:17:34;;;;;;;0.40;0.40;;;5.90;99.90;;;;;;5086984;28;20186;-57
2022/01/09 12:20:13;;;;;;;0.40;0.40;;;6.10;1.00;;;;;;5061083;28;20864;-57
2022/01/09 12:22:45;;;;;;;0.40;0.40;;;6.20;99.90;;;;;;5086448;28;20220;-57
2022/01/09 12:25:25;;;;;;;0.40;0.40;;;6.20;99.90;;;;;;5083745;28;20194;-57
2022/01/09 12:28:11;;;;;;;0.30;0.30;;;6.20;99.90;;;;;;5081428;28;21128;-57
2022/01/09 12:30:41;;;;;;;0.40;0.40;;;6.30;95.20;;;;;;5066901;28;20796;-56
2022/01/09 12:33:19;;;;;;;0.40;0.40;;;6.30;99.90;;;;;;5085119;28;20218;-57
2022/01/09 12:35:56;;;;;;;0.40;0.40;;;6.30;99.90;;;;;;5088632;28;20228;-57
2022/01/09 12:38:25;;;;;;;0.40;0.40;;;6.10;99.90;;;;;;5076510;28;20262;-57
2022/01/09 12:41:24;;;;;;;0.40;0.40;;;6.00;99.90;;;;;;5086232;28;20293;-57
2022/01/09 12:44:00;;;;;;;0.40;0.40;;;6.00;99.90;;;;;;5082595;28;20199;-57
2022/01/09 12:46:29;;;;;;;0.40;0.40;;;5.90;99.90;;;;;;5084785;28;20216;-57
2022/01/09 12:49:07;;;;;;;0.40;0.40;;;5.90;1.00;;;;;;5082597;28;20614;-56
2022/01/09 12:51:36;;;;;;;0.40;0.40;;;6.10;1.00;;;;;;5051923;28;20191;-56
2022/01/09 12:54:06;;;;;;;0.40;0.40;;;6.20;99.90;;;;;;5056464;28;20202;-57
2022/01/09 12:56:35;;;;;;;0.40;0.40;;;6.20;99.90;;;;;;5083031;28;20204;-57
2022/01/09 12:59:08;;;;;;;0.40;0.40;;;6.20;99.90;;;;;;5055639;28;20234;-57
2022/01/09 13:01:42;;;;;;;0.33;0.33;;;6.20;99.90;;;;;;5070404;28;20259;-56
2022/01/09 13:04:10;;;;;;;0.40;0.40;;;6.20;99.90;;;;;;5079845;28;20193;-57
2022/01/09 13:06:39;;;;;;;0.40;0.40;;;6.10;99.90;;;;;;5080575;28;20198;-57
2022/01/09 13:09:13;;;;;;;0.40;0.40;;;6.20;99.90;;;;;;5083566;28;20194;-58
2022/01/09 13:11:57;;;;;;;0.40;0.40;;;6.20;99.90;;;;;;5050309;28;20198;-57
2022/01/09 13:14:32;;;;;;;0.40;0.40;;;6.20;99.90;;;;;;5080727;28;20224;-57
2022/01/09 13:17:00;;;;;;;0.40;0.40;;;6.10;99.90;;;;;;5078544;28;20190;-57
2022/01/09 13:19:27;;;;;;;0.50;0.50;;;6.20;55.50;;;;;;5085879;28;20209;-57